Time;durP1;ratioP1;P1;durP2;ratioP2;P2;SDS_P1;SDS_P2;PMS_P1;PMS_P2;Temp;Humidity;BMP_temperature;BMP_pressure;BME280_temperature;BME280_humidity;BME280_pressure;Samples;Min_cycle;Max_cycle;Signal;HPM_P1;HPM_P2
2022/10/11 00:02:17;;;;;;;7.88;3.03;;;16.00;86.70;;;;;;5015115;28;20377;-59
2022/10/11 00:04:43;;;;;;;7.10;2.53;;;16.00;86.80;;;;;;5012171;28;20042;-59
2022/10/11 00:07:09;;;;;;;6.63;2.90;;;16.00;86.80;;;;;;5011037;28;20025;-59
2022/10/11 00:09:34;;;;;;;5.82;2.67;;;15.90;87.70;;;;;;5011399;28;20041;-59
2022/10/11 00:12:00;;;;;;;5.93;2.70;;;15.90;86.90;;;;;;5011333;28;20069;-58
2022/10/11 00:14:26;;;;;;;4.45;2.70;;;15.90;87.00;;;;;;5011166;28;20611;-59
2022/10/11 00:16:52;;;;;;;5.63;2.72;;;15.80;87.10;;;;;;5013141;28;20108;-58
2022/10/11 00:19:18;;;;;;;4.10;2.70;;;15.80;87.30;;;;;;5007274;28;20029;-58
2022/10/11 00:21:44;;;;;;;4.45;2.75;;;15.80;87.40;;;;;;5008871;28;20037;-58
2022/10/11 00:24:10;;;;;;;5.57;2.70;;;15.80;87.40;;;;;;5011365;28;20069;-60
2022/10/11 00:26:36;;;;;;;7.38;2.80;;;15.80;87.50;;;;;;5011156;28;20589;-59
2022/10/11 00:29:01;;;;;;;7.55;2.92;;;15.80;87.60;;;;;;4973830;28;1085424;-59
2022/10/11 00:31:27;;;;;;;3.50;2.45;;;15.80;88.50;;;;;;5011119;28;20047;-58
2022/10/11 00:33:53;;;;;;;8.38;3.25;;;15.80;87.70;;;;;;5013856;28;20034;-59
2022/10/11 00:36:20;;;;;;;6.70;3.00;;;15.80;87.70;;;;;;5010943;28;20064;-59
2022/10/11 00:38:46;;;;;;;6.70;2.90;;;15.80;87.80;;;;;;5015335;28;20029;-59
2022/10/11 00:41:12;;;;;;;7.93;3.10;;;15.80;87.80;;;;;;5013413;28;20065;-59
2022/10/11 00:43:38;;;;;;;4.40;2.63;;;15.80;87.60;;;;;;5013801;28;20037;-61
2022/10/11 00:46:23;;;;;;;4.93;2.60;;;15.80;87.60;;;;;;5010704;28;20068;-58
2022/10/11 00:48:55;;;;;;;6.10;2.80;;;15.80;87.60;;;;;;5013648;28;20036;-58
2022/10/11 00:51:36;;;;;;;6.97;2.55;;;15.80;87.50;;;;;;5014215;28;20470;-60
2022/10/11 00:54:03;;;;;;;5.43;2.53;;;15.80;87.60;;;;;;5014989;28;20068;-60
2022/10/11 00:56:36;;;;;;;6.90;2.92;;;15.70;87.30;;;;;;5014309;28;20036;-59
2022/10/11 00:59:07;;;;;;;7.78;2.92;;;15.80;87.30;;;;;;5015477;28;20493;-58
2022/10/11 01:01:33;;;;;;;5.40;2.38;;;15.80;87.30;;;;;;5017251;28;20091;-59
2022/10/11 01:04:00;;;;;;;5.90;2.60;;;15.80;87.10;;;;;;5011045;28;20033;-58
2022/10/11 01:06:25;;;;;;;6.47;2.58;;;15.80;87.00;;;;;;5012835;28;20057;-60
2022/10/11 01:08:52;;;;;;;3.58;2.30;;;15.80;87.00;;;;;;5014125;28;20107;-58
2022/10/11 01:11:21;;;;;;;7.30;2.38;;;15.70;86.90;;;;;;5014513;28;20562;-59
2022/10/11 01:13:47;;;;;;;4.45;2.72;;;15.70;86.70;;;;;;5010216;28;20049;-60
2022/10/11 01:16:33;;;;;;;5.25;2.50;;;15.60;86.60;;;;;;5009623;28;20033;-59
2022/10/11 01:19:34;;;;;;;6.35;2.75;;;15.60;86.60;;;;;;5010358;28;20455;-59
2022/10/11 01:22:06;;;;;;;7.25;2.70;;;15.60;86.90;;;;;;5009694;28;20033;-58
2022/10/11 01:24:53;;;;;;;3.05;2.50;;;15.60;86.50;;;;;;5012109;28;20490;-59
2022/10/11 01:27:39;;;;;;;5.70;2.80;;;15.60;86.40;;;;;;5011404;28;20626;-58
2022/10/11 01:30:37;;;;;;;;;;;15.50;86.40;;;;;;5011326;28;20057;-58
2022/10/11 01:33:17;;;;;;;4.72;2.20;;;15.50;86.60;;;;;;4967199;28;19921;-61
2022/10/11 01:35:58;;;;;;;5.93;2.33;;;15.40;86.00;;;;;;5012685;28;20112;-58
2022/10/11 01:38:43;;;;;;;5.75;2.70;;;15.40;86.40;;;;;;5011573;28;20124;-60
2022/10/11 01:41:17;;;;;;;;;;;15.30;86.60;;;;;;5014514;28;20184;-58
2022/10/11 01:43:44;;;;;;;5.03;2.30;;;15.30;87.00;;;;;;5010697;28;19951;-61
2022/10/11 01:46:11;;;;;;;5.40;2.85;;;15.30;86.40;;;;;;5011669;28;20043;-59
2022/10/11 01:48:52;;;;;;;6.00;2.60;;;15.20;86.70;;;;;;5012488;28;20444;-59
2022/10/11 01:51:24;;;;;;;7.22;2.78;;;15.20;87.10;;;;;;5013601;28;20116;-58
2022/10/11 01:54:01;;;;;;;4.28;2.50;;;15.20;87.00;;;;;;5017650;28;20314;-59
2022/10/11 01:56:53;;;;;;;8.18;2.70;;;15.20;87.50;;;;;;5015146;28;20038;-57
2022/10/11 01:59:32;;;;;;;5.40;2.92;;;15.20;87.60;;;;;;4983059;28;20405;-59
2022/10/11 02:02:39;;;;;;;6.82;3.00;;;15.20;87.30;;;;;;5012015;28;20387;-60
2022/10/11 02:05:11;;;;;;;4.45;2.53;;;15.20;87.70;;;;;;5015009;28;20066;-60
2022/10/11 02:08:04;;;;;;;5.45;2.72;;;15.20;87.30;;;;;;5016043;28;20484;-63
2022/10/11 02:10:32;;;;;;;5.82;2.55;;;15.20;87.60;;;;;;4995285;28;22117;-60
2022/10/11 02:13:11;;;;;;;3.90;2.50;;;15.10;87.50;;;;;;5011866;28;20422;-60
2022/10/11 02:15:40;;;;;;;3.42;2.80;;;15.20;87.90;;;;;;5016237;28;20583;-61
2022/10/11 02:18:15;;;;;;;7.32;2.83;;;15.20;87.70;;;;;;5015570;28;20037;-60
2022/10/11 02:20:43;;;;;;;5.93;2.80;;;15.10;88.60;;;;;;5014371;28;20069;-60
2022/10/11 02:23:17;;;;;;;5.72;3.15;;;15.10;87.90;;;;;;5013610;28;20041;-61
2022/10/11 02:25:45;;;;;;;5.38;2.80;;;15.10;88.10;;;;;;5017120;28;20542;-60
2022/10/11 02:28:15;;;;;;;4.03;2.45;;;15.10;88.00;;;;;;5012836;28;20112;-58
2022/10/11 02:30:43;;;;;;;5.97;2.90;;;15.10;88.00;;;;;;4996122;28;20118;-60
2022/10/11 02:33:13;;;;;;;5.07;2.28;;;15.10;88.00;;;;;;5015310;28;20042;-60
2022/10/11 02:35:44;;;;;;;5.22;2.67;;;15.10;88.00;;;;;;5016723;28;20484;-59
2022/10/11 02:38:13;;;;;;;5.82;2.60;;;15.10;87.80;;;;;;5014146;28;20062;-60
2022/10/11 02:40:45;;;;;;;4.30;2.60;;;15.10;87.60;;;;;;5014968;28;20041;-60
2022/10/11 02:43:22;;;;;;;3.83;2.45;;;15.20;87.40;;;;;;5015840;28;20302;-60
2022/10/11 02:45:56;;;;;;;10.00;2.92;;;15.10;87.30;;;;;;5015494;28;20041;-60
2022/10/11 02:48:24;;;;;;;3.92;2.25;;;15.10;87.10;;;;;;5015473;28;20038;-58
2022/10/11 02:50:49;;;;;;;6.28;2.90;;;15.10;86.90;;;;;;5015243;28;20065;-58
2022/10/11 02:53:15;;;;;;;4.82;2.22;;;15.00;87.60;;;;;;5015470;28;20311;-58
2022/10/11 02:55:41;;;;;;;6.63;2.55;;;15.00;86.60;;;;;;5015355;28;20537;-59
2022/10/11 02:58:06;;;;;;;5.30;2.33;;;15.00;86.40;;;;;;5015231;28;20068;-60
2022/10/11 03:00:32;;;;;;;4.05;2.50;;;15.00;86.50;;;;;;5012788;28;20033;-60
2022/10/11 03:02:57;;;;;;;5.00;2.45;;;15.00;86.50;;;;;;5014945;28;20037;-59
2022/10/11 03:05:23;;;;;;;2.40;2.05;;;14.90;86.40;;;;;;5013385;28;20033;-59
2022/10/11 03:07:48;;;;;;;4.30;2.80;;;14.90;86.30;;;;;;5014012;28;20110;-59
2022/10/11 03:10:14;;;;;;;3.97;2.53;;;14.90;86.20;;;;;;5014676;28;20121;-59
2022/10/11 03:12:40;;;;;;;6.45;2.60;;;14.80;86.30;;;;;;5013024;28;20033;-59
2022/10/11 03:15:06;;;;;;;7.30;2.97;;;14.80;86.40;;;;;;5013837;28;20250;-60
2022/10/11 03:17:32;;;;;;;7.15;3.00;;;14.70;86.70;;;;;;5016201;28;20509;-58
2022/10/11 03:19:57;;;;;;;6.13;2.90;;;14.70;87.10;;;;;;5015800;28;20041;-60
2022/10/11 03:22:23;;;;;;;4.97;2.95;;;14.70;87.80;;;;;;5016650;28;20038;-59
2022/10/11 03:24:48;;;;;;;6.78;2.67;;;14.70;87.90;;;;;;5014596;28;20049;-60
2022/10/11 03:27:14;;;;;;;3.47;2.78;;;14.60;88.00;;;;;;5012651;28;20096;-59
2022/10/11 03:29:39;;;;;;;5.75;2.67;;;14.70;88.10;;;;;;5015000;28;20608;-59
2022/10/11 03:32:05;;;;;;;7.78;3.13;;;14.70;88.20;;;;;;5013860;28;20417;-59
2022/10/11 03:34:31;;;;;;;9.30;3.20;;;14.70;88.10;;;;;;5013929;28;20037;-59
2022/10/11 03:36:56;;;;;;;4.75;2.92;;;14.70;88.90;;;;;;5015548;28;20104;-60
2022/10/11 03:39:22;;;;;;;7.20;3.42;;;14.80;88.00;;;;;;5011054;28;20034;-60
2022/10/11 03:41:47;;;;;;;5.57;2.78;;;14.70;87.90;;;;;;5015616;28;20041;-58
2022/10/11 03:44:13;;;;;;;4.05;2.80;;;14.70;87.90;;;;;;5015389;28;20092;-60
2022/10/11 03:46:39;;;;;;;4.15;3.00;;;14.70;88.00;;;;;;5012201;28;20137;-59
2022/10/11 03:49:05;;;;;;;5.35;3.10;;;14.70;88.10;;;;;;5014891;28;20096;-60
2022/10/11 03:51:30;;;;;;;5.80;3.17;;;14.70;88.10;;;;;;5013554;28;20041;-60
2022/10/11 03:53:56;;;;;;;3.97;3.10;;;14.70;88.10;;;;;;5012651;28;20033;-58
2022/10/11 03:56:22;;;;;;;8.63;3.55;;;14.70;88.00;;;;;;5013132;28;20124;-59
2022/10/11 03:58:47;;;;;;;6.50;3.55;;;14.70;88.00;;;;;;5014120;28;20581;-60
2022/10/11 04:01:13;;;;;;;4.43;3.20;;;14.80;88.10;;;;;;5015958;28;20568;-60
2022/10/11 04:03:39;;;;;;;5.28;3.60;;;14.70;88.20;;;;;;5013592;28;20184;-59
2022/10/11 04:06:05;;;;;;;4.22;3.25;;;14.70;88.30;;;;;;5014223;28;20510;-60
2022/10/11 04:08:30;;;;;;;4.60;2.80;;;14.70;88.50;;;;;;5013891;28;20480;-60
2022/10/11 04:10:56;;;;;;;4.25;2.88;;;14.70;88.60;;;;;;5010790;28;20041;-60
2022/10/11 04:13:21;;;;;;;6.30;3.15;;;14.70;88.60;;;;;;5014629;28;20041;-59
2022/10/11 04:15:47;;;;;;;4.93;3.10;;;14.80;88.50;;;;;;5009395;28;20398;-60
2022/10/11 04:18:13;;;;;;;6.32;3.20;;;14.80;89.30;;;;;;5012262;28;20488;-60
2022/10/11 04:20:38;;;;;;;5.05;3.08;;;14.80;88.50;;;;;;5010216;28;20448;-60
2022/10/11 04:23:04;;;;;;;5.97;3.90;;;14.80;88.50;;;;;;5013005;28;20026;-59
2022/10/11 04:25:29;;;;;;;14.23;9.05;;;14.80;88.50;;;;;;5012800;28;20135;-59
2022/10/11 04:27:55;;;;;;;12.82;7.13;;;14.80;88.60;;;;;;5012394;28;20501;-60
2022/10/11 04:30:21;;;;;;;7.97;4.70;;;14.80;88.60;;;;;;5014317;28;20028;-60
2022/10/11 04:32:46;;;;;;;8.13;4.68;;;14.80;88.60;;;;;;5011847;28;20388;-57
2022/10/11 04:35:12;;;;;;;6.00;4.28;;;14.90;88.60;;;;;;5013187;28;20046;-58
2022/10/11 04:37:38;;;;;;;7.38;3.95;;;14.90;88.50;;;;;;5011287;28;20037;-59
2022/10/11 04:40:05;;;;;;;8.77;6.13;;;14.90;88.60;;;;;;5013884;28;20101;-60
2022/10/11 04:42:31;;;;;;;5.47;4.18;;;14.90;88.50;;;;;;5012182;28;20087;-59
2022/10/11 04:44:57;;;;;;;6.07;4.25;;;14.90;88.40;;;;;;5013212;28;20029;-59
2022/10/11 04:47:22;;;;;;;16.20;9.05;;;15.00;88.50;;;;;;5011170;28;20029;-58
2022/10/11 04:49:48;;;;;;;14.13;9.27;;;14.90;88.30;;;;;;5014203;28;20044;-61
2022/10/11 04:52:13;;;;;;;13.77;7.47;;;15.00;88.30;;;;;;5011275;28;20044;-59
2022/10/11 04:54:39;;;;;;;19.77;12.40;;;14.90;88.30;;;;;;5012510;28;20425;-60
2022/10/11 04:57:05;;;;;;;29.17;18.23;;;14.90;88.40;;;;;;5013142;28;20061;-58
2022/10/11 04:59:30;;;;;;;28.45;19.20;;;15.00;88.50;;;;;;5015461;28;20087;-59
2022/10/11 05:01:56;;;;;;;20.63;13.45;;;15.00;88.50;;;;;;4997158;28;20588;-59
2022/10/11 05:04:22;;;;;;;14.02;8.43;;;15.00;88.60;;;;;;5013208;28;20041;-59
2022/10/11 05:06:47;;;;;;;14.77;8.20;;;15.00;88.50;;;;;;5009408;28;20044;-60
2022/10/11 05:09:13;;;;;;;9.15;5.60;;;15.00;88.50;;;;;;5012263;28;20041;-58
2022/10/11 05:11:39;;;;;;;10.00;5.28;;;15.00;88.50;;;;;;5011890;28;20042;-59
2022/10/11 05:14:04;;;;;;;9.05;5.40;;;15.00;88.40;;;;;;5013490;28;20456;-57
2022/10/11 05:16:30;;;;;;;7.68;5.10;;;15.00;88.40;;;;;;5013937;28;20026;-60
2022/10/11 05:18:55;;;;;;;6.78;5.20;;;15.10;88.30;;;;;;5008830;28;20116;-61
2022/10/11 05:21:23;;;;;;;7.50;4.68;;;15.10;88.30;;;;;;5012959;28;20041;-60
2022/10/11 05:23:51;;;;;;;9.80;6.13;;;15.10;88.10;;;;;;5009925;28;20061;-60
2022/10/11 05:26:18;;;;;;;11.05;5.47;;;15.10;88.10;;;;;;5017345;28;20035;-59
2022/10/11 05:28:43;;;;;;;9.73;6.57;;;15.10;88.10;;;;;;5015623;28;20041;-60
2022/10/11 05:31:10;;;;;;;18.05;12.75;;;15.10;88.10;;;;;;5018155;28;20056;-59
2022/10/11 05:33:36;;;;;;;16.75;10.02;;;15.10;88.10;;;;;;5015278;28;20040;-60
2022/10/11 05:36:01;;;;;;;14.65;10.10;;;15.00;88.10;;;;;;5016181;28;20033;-60
2022/10/11 05:38:27;;;;;;;13.07;10.15;;;15.10;88.10;;;;;;5015143;28;20045;-59
2022/10/11 05:40:53;;;;;;;12.38;8.80;;;15.10;88.10;;;;;;5014164;28;20034;-60
2022/10/11 05:43:19;;;;;;;11.43;6.28;;;15.10;88.10;;;;;;5016196;28;20029;-59
2022/10/11 05:45:45;;;;;;;9.20;5.60;;;15.10;88.10;;;;;;5015546;28;20040;-58
2022/10/11 05:48:11;;;;;;;9.52;5.35;;;15.10;88.10;;;;;;5017783;28;20560;-59
2022/10/11 05:50:38;;;;;;;5.10;4.30;;;15.10;88.10;;;;;;5015113;28;20042;-60
2022/10/11 05:53:04;;;;;;;5.63;4.93;;;15.10;88.00;;;;;;5015334;28;20041;-59
2022/10/11 05:55:33;;;;;;;11.32;6.38;;;15.10;88.10;;;;;;5014532;28;20394;-60
2022/10/11 05:57:59;;;;;;;8.00;5.15;;;15.10;88.10;;;;;;5017337;28;20033;-60
2022/10/11 06:00:24;;;;;;;11.88;5.60;;;15.10;88.20;;;;;;5017209;28;20060;-61
2022/10/11 06:02:50;;;;;;;11.98;5.60;;;15.10;88.30;;;;;;5016651;28;20588;-60
2022/10/11 06:05:16;;;;;;;7.68;5.72;;;15.10;89.10;;;;;;5015971;28;20052;-61
2022/10/11 06:07:42;;;;;;;12.30;5.20;;;15.10;88.70;;;;;;5017556;28;20045;-59
2022/10/11 06:10:08;;;;;;;12.10;5.95;;;15.10;88.30;;;;;;5014428;28;20234;-61
2022/10/11 06:12:34;;;;;;;9.88;5.10;;;15.10;88.30;;;;;;5010673;28;20041;-61
2022/10/11 06:14:59;;;;;;;8.75;5.40;;;15.10;88.40;;;;;;5018723;28;20779;-61
2022/10/11 06:17:25;;;;;;;6.78;4.53;;;15.10;88.40;;;;;;5014852;28;20113;-61
2022/10/11 06:19:51;;;;;;;9.95;5.35;;;15.10;88.30;;;;;;5014479;28;20451;-61
2022/10/11 06:22:17;;;;;;;10.30;5.03;;;15.10;88.40;;;;;;5010393;28;20030;-61
2022/10/11 06:24:43;;;;;;;12.63;5.72;;;15.00;88.50;;;;;;5015143;28;20052;-60
2022/10/11 06:27:09;;;;;;;12.73;5.10;;;15.00;88.70;;;;;;5015363;28;20106;-60
2022/10/11 06:29:35;;;;;;;7.43;5.50;;;15.00;88.80;;;;;;5013949;28;20042;-60
2022/10/11 06:32:00;;;;;;;10.30;5.53;;;15.10;89.00;;;;;;5014066;28;20116;-61
2022/10/11 06:34:26;;;;;;;7.57;4.78;;;15.00;89.00;;;;;;5014618;28;20033;-60
2022/10/11 06:36:52;;;;;;;7.60;5.25;;;15.10;89.20;;;;;;5014516;28;20444;-59
2022/10/11 06:39:17;;;;;;;9.95;5.18;;;15.10;89.30;;;;;;5016031;28;20034;-60
2022/10/11 06:41:43;;;;;;;7.25;4.88;;;15.10;89.30;;;;;;5015100;28;20481;-60
2022/10/11 06:44:12;;;;;;;9.88;4.88;;;15.10;89.50;;;;;;5011910;28;20037;-58
2022/10/11 06:46:38;;;;;;;7.85;4.97;;;15.10;89.50;;;;;;5015002;28;20045;-58
2022/10/11 06:49:04;;;;;;;6.20;4.95;;;15.10;89.50;;;;;;5014982;28;20556;-59
2022/10/11 06:51:30;;;;;;;6.40;4.55;;;15.20;89.50;;;;;;5013825;28;20494;-59
2022/10/11 06:53:58;;;;;;;7.15;4.93;;;15.20;89.50;;;;;;5014264;28;20533;-59
2022/10/11 06:56:25;;;;;;;8.63;6.15;;;15.30;89.50;;;;;;5015839;28;20045;-60
2022/10/11 06:58:52;;;;;;;12.27;6.55;;;15.30;89.40;;;;;;5011071;28;20402;-58
2022/10/11 07:01:20;;;;;;;10.57;6.38;;;15.30;89.20;;;;;;5013993;28;20179;-60
2022/10/11 07:03:46;;;;;;;10.73;6.00;;;15.30;89.10;;;;;;5016137;28;20029;-58
2022/10/11 07:06:15;;;;;;;11.73;5.53;;;15.30;89.20;;;;;;5014508;28;20033;-59
2022/10/11 07:08:41;;;;;;;9.15;5.88;;;15.30;89.30;;;;;;5013909;28;20048;-59
2022/10/11 07:11:18;;;;;;;7.13;5.75;;;15.40;89.60;;;;;;5013155;28;20037;-59
2022/10/11 07:13:52;;;;;;;6.70;5.38;;;15.30;89.70;;;;;;5015638;28;20033;-60
2022/10/11 07:16:19;;;;;;;8.02;5.38;;;15.40;89.90;;;;;;5015583;28;20255;-60
2022/10/11 07:18:45;;;;;;;9.73;6.07;;;15.40;89.90;;;;;;5013172;28;20140;-59
2022/10/11 07:21:13;;;;;;;9.02;6.18;;;15.50;90.40;;;;;;5015150;28;20073;-59
2022/10/11 07:23:40;;;;;;;11.82;6.00;;;15.50;90.00;;;;;;5012743;28;20037;-59
2022/10/11 07:26:07;;;;;;;10.35;6.63;;;15.50;90.00;;;;;;5016361;28;20087;-60
2022/10/11 07:28:33;;;;;;;9.60;6.72;;;15.60;90.00;;;;;;5007957;28;20132;-58
2022/10/11 07:31:07;;;;;;;9.50;6.00;;;15.60;89.90;;;;;;5014499;28;20041;-59
2022/10/11 07:33:32;;;;;;;8.60;6.15;;;15.60;89.90;;;;;;5012382;28;20065;-57
2022/10/11 07:35:58;;;;;;;7.72;5.65;;;15.70;89.80;;;;;;5016410;28;20445;-58
2022/10/11 07:38:25;;;;;;;8.60;5.95;;;15.80;89.70;;;;;;5013076;28;20034;-60
2022/10/11 07:40:50;;;;;;;10.73;6.40;;;15.80;89.70;;;;;;5015543;28;20061;-60
2022/10/11 07:43:16;;;;;;;11.32;6.15;;;15.80;89.60;;;;;;5013191;28;20464;-58
2022/10/11 07:45:44;;;;;;;9.15;6.53;;;15.90;89.40;;;;;;5012693;28;20084;-58
2022/10/11 07:48:10;;;;;;;11.20;6.30;;;15.90;89.40;;;;;;5012222;28;20124;-60
2022/10/11 07:50:36;;;;;;;9.98;6.60;;;15.90;89.30;;;;;;5013613;28;20034;-59
2022/10/11 07:53:02;;;;;;;8.23;6.28;;;16.00;89.30;;;;;;5013830;28;20540;-59
2022/10/11 07:55:29;;;;;;;11.50;6.22;;;16.00;89.20;;;;;;5015243;28;20037;-60
2022/10/11 07:57:56;;;;;;;8.13;6.05;;;16.00;90.10;;;;;;5012967;28;20044;-60
2022/10/11 08:00:22;;;;;;;8.77;6.57;;;16.00;89.80;;;;;;5012805;28;20045;-58
2022/10/11 08:02:48;;;;;;;9.70;6.32;;;16.10;90.10;;;;;;5008319;28;20507;-58
2022/10/11 08:05:14;;;;;;;17.20;6.55;;;16.10;90.10;;;;;;5018749;28;20072;-61
2022/10/11 08:07:40;;;;;;;9.70;5.82;;;16.20;90.00;;;;;;5016558;28;20087;-61
2022/10/11 08:10:06;;;;;;;11.20;6.72;;;16.30;89.90;;;;;;5016973;28;20112;-60
2022/10/11 08:12:32;;;;;;;10.70;6.22;;;16.30;89.80;;;;;;5014736;28;20084;-58
2022/10/11 08:14:57;;;;;;;10.55;7.07;;;16.40;89.80;;;;;;5017560;28;20505;-59
2022/10/11 08:17:23;;;;;;;11.43;7.28;;;16.40;89.70;;;;;;5017998;28;20029;-59
2022/10/11 08:19:50;;;;;;;11.13;7.10;;;16.40;89.70;;;;;;5017319;28;20486;-60
2022/10/11 08:22:16;;;;;;;11.23;7.32;;;16.50;89.80;;;;;;5015993;28;20358;-58
2022/10/11 08:24:41;;;;;;;12.15;7.93;;;16.50;89.70;;;;;;5016724;28;20113;-60
2022/10/11 08:27:07;;;;;;;9.93;7.70;;;16.60;89.40;;;;;;5017359;28;20578;-61
2022/10/11 08:29:33;;;;;;;10.63;7.28;;;16.70;89.00;;;;;;5017866;28;20060;-60
2022/10/11 08:31:58;;;;;;;11.85;7.78;;;16.70;89.00;;;;;;4997374;28;20061;-60
2022/10/11 08:34:24;;;;;;;14.15;8.85;;;16.70;89.00;;;;;;5015026;28;20500;-61
2022/10/11 08:36:49;;;;;;;14.35;9.35;;;16.80;89.00;;;;;;5016738;28;20049;-60
2022/10/11 08:39:15;;;;;;;14.75;8.85;;;16.80;88.80;;;;;;4999245;28;20088;-60
2022/10/11 08:41:57;;;;;;;13.80;8.88;;;16.80;88.70;;;;;;5017423;28;20128;-60
2022/10/11 08:44:37;;;;;;;15.15;9.48;;;16.90;88.60;;;;;;5010604;28;20049;-59
2022/10/11 08:47:21;;;;;;;15.68;8.43;;;16.90;88.40;;;;;;5015476;28;20072;-61
2022/10/11 08:49:48;;;;;;;13.30;8.90;;;17.00;88.00;;;;;;5017524;28;20114;-60
2022/10/11 08:52:21;;;;;;;12.25;8.02;;;17.00;88.00;;;;;;5016009;28;20029;-59
2022/10/11 08:55:00;;;;;;;14.68;9.13;;;17.10;87.80;;;;;;5015558;28;20508;-59
2022/10/11 08:57:28;;;;;;;14.23;9.30;;;17.10;87.30;;;;;;5016310;28;20701;-60
2022/10/11 08:59:59;;;;;;;16.58;8.48;;;17.10;86.90;;;;;;5017649;28;20402;-59
2022/10/11 09:02:39;;;;;;;16.27;9.23;;;17.10;86.90;;;;;;5019805;28;20041;-61
2022/10/11 09:05:08;;;;;;;13.57;9.20;;;17.00;86.80;;;;;;5020636;28;20049;-58
2022/10/11 09:07:46;;;;;;;17.23;9.60;;;17.00;86.90;;;;;;5019448;28;20045;-60
2022/10/11 09:10:37;;;;;;;13.35;9.23;;;17.00;87.10;;;;;;5020904;28;20034;-60
2022/10/11 09:13:17;;;;;;;12.55;9.52;;;17.00;87.30;;;;;;5020083;28;20046;-59
2022/10/11 09:16:17;;;;;;;14.23;9.38;;;17.00;87.40;;;;;;5022019;28;20061;-60
2022/10/11 09:19:00;;;;;;;13.70;9.20;;;17.00;87.60;;;;;;5020305;28;20045;-61
2022/10/11 09:22:02;;;;;;;12.68;8.93;;;17.10;87.60;;;;;;5021123;28;20084;-60
2022/10/11 09:24:55;;;;;;;13.68;9.77;;;17.10;87.60;;;;;;5020907;28;20095;-60
2022/10/11 09:27:35;;;;;;;13.30;9.07;;;17.10;86.90;;;;;;5020528;28;20088;-59
2022/10/11 09:30:18;;;;;;;19.00;10.27;;;17.10;87.20;;;;;;5021892;28;20448;-60
2022/10/11 09:32:58;;;;;;;13.52;9.77;;;17.10;86.80;;;;;;5020566;28;20056;-60
2022/10/11 09:35:24;;;;;;;17.35;10.02;;;17.10;86.90;;;;;;5021605;28;20610;-59
2022/10/11 09:38:17;;;;;;;14.27;10.52;;;17.20;87.10;;;;;;5020270;28;20126;-60
2022/10/11 09:40:58;;;;;;;16.02;9.43;;;17.20;87.10;;;;;;5021225;28;20109;-60
2022/10/11 09:43:24;;;;;;;14.20;9.48;;;17.20;87.30;;;;;;5020978;28;20107;-61
2022/10/11 09:45:49;;;;;;;14.60;9.55;;;17.20;87.50;;;;;;5020914;28;20022;-61
2022/10/11 09:48:21;;;;;;;13.10;9.82;;;17.30;87.70;;;;;;5019665;28;20539;-61
2022/10/11 09:50:49;;;;;;;15.77;9.68;;;17.30;87.60;;;;;;5020303;28;20060;-61
2022/10/11 09:53:14;;;;;;;15.57;10.15;;;17.40;87.60;;;;;;5019715;28;20041;-61
2022/10/11 09:55:49;;;;;;;16.17;9.90;;;17.40;87.30;;;;;;5020266;28;20044;-61
2022/10/11 09:58:33;;;;;;;17.25;10.43;;;17.40;87.10;;;;;;5020744;28;20042;-61
2022/10/11 10:01:10;;;;;;;16.73;9.80;;;17.50;86.40;;;;;;5020154;28;20454;-60
2022/10/11 10:03:42;;;;;;;15.43;10.73;;;17.40;86.60;;;;;;5019657;28;20142;-61
2022/10/11 10:06:22;;;;;;;14.65;10.38;;;17.50;86.00;;;;;;5020149;28;20109;-61
2022/10/11 10:08:49;;;;;;;14.73;10.77;;;17.50;86.00;;;;;;5018791;28;20116;-61
2022/10/11 10:11:15;;;;;;;14.82;9.32;;;17.50;86.30;;;;;;5016649;28;20501;-61
2022/10/11 10:13:51;;;;;;;13.93;9.95;;;17.50;86.40;;;;;;5019634;28;20045;-61
2022/10/11 10:16:28;;;;;;;16.10;9.10;;;17.50;86.20;;;;;;5020614;28;20076;-60
2022/10/11 10:19:04;;;;;;;12.32;9.30;;;17.50;86.00;;;;;;5018380;28;20438;-60
2022/10/11 10:21:42;;;;;;;13.68;8.57;;;17.60;86.00;;;;;;5020054;28;20408;-60
2022/10/11 10:24:31;;;;;;;13.18;9.65;;;17.60;86.10;;;;;;5019398;28;20033;-58
2022/10/11 10:27:09;;;;;;;15.82;9.57;;;17.70;85.70;;;;;;5018897;28;20068;-60
2022/10/11 10:29:35;;;;;;;13.57;8.60;;;17.70;85.10;;;;;;5017294;28;20041;-58
2022/10/11 10:32:20;;;;;;;13.55;8.30;;;17.70;85.70;;;;;;5018703;28;20517;-60
2022/10/11 10:35:16;;;;;;;14.48;8.77;;;17.80;85.30;;;;;;5018094;28;20037;-60
2022/10/11 10:37:52;;;;;;;14.65;8.80;;;17.80;85.50;;;;;;5020059;28;20033;-60
2022/10/11 10:40:25;;;;;;;13.65;7.97;;;17.90;84.60;;;;;;5019858;28;20064;-60
2022/10/11 10:42:51;;;;;;;14.32;8.13;;;17.90;84.60;;;;;;5019240;28;20040;-58
2022/10/11 10:45:19;;;;;;;18.20;8.07;;;17.90;84.60;;;;;;5015411;28;20033;-60
2022/10/11 10:47:59;;;;;;;14.77;8.07;;;17.90;84.80;;;;;;5018141;28;20091;-59
2022/10/11 10:50:31;;;;;;;14.48;7.30;;;18.00;84.40;;;;;;5016994;28;20801;-60
2022/10/11 10:53:17;;;;;;;13.43;7.90;;;18.00;84.60;;;;;;5019141;28;20049;-59
2022/10/11 10:55:57;;;;;;;15.77;7.15;;;18.10;84.10;;;;;;5018099;28;20026;-60
2022/10/11 10:58:48;;;;;;;10.57;7.05;;;18.20;83.60;;;;;;5018365;28;20520;-59
2022/10/11 11:01:22;;;;;;;10.15;6.25;;;18.20;83.60;;;;;;5017862;28;20042;-61
2022/10/11 11:04:14;;;;;;;13.63;6.47;;;18.30;83.30;;;;;;5016973;28;20512;-60
2022/10/11 11:06:39;;;;;;;10.32;6.45;;;18.30;82.30;;;;;;5019572;28;20041;-59
2022/10/11 11:09:18;;;;;;;8.65;5.82;;;18.40;82.70;;;;;;5016296;28;20049;-60
2022/10/11 11:11:55;;;;;;;9.30;6.38;;;18.40;81.90;;;;;;5018664;28;20466;-59
2022/10/11 11:14:39;;;;;;;13.02;6.63;;;18.40;81.70;;;;;;5017745;28;20026;-61
2022/10/11 11:17:22;;;;;;;13.43;6.40;;;18.50;81.00;;;;;;5016866;28;20038;-60
2022/10/11 11:20:05;;;;;;;12.38;6.63;;;18.40;81.80;;;;;;5018912;28;20033;-60
2022/10/11 11:22:53;;;;;;;11.15;5.72;;;18.50;81.50;;;;;;5017639;28;20033;-61
2022/10/11 11:25:49;;;;;;;10.77;6.18;;;18.60;81.30;;;;;;5017701;28;20030;-61
2022/10/11 11:28:45;;;;;;;10.07;6.28;;;18.60;81.80;;;;;;5015122;28;20029;-60
2022/10/11 11:31:29;;;;;;;11.40;5.57;;;18.60;80.40;;;;;;5017979;28;20568;-60
2022/10/11 11:34:10;;;;;;;9.50;5.57;;;18.60;80.60;;;;;;5018439;28;20038;-61
2022/10/11 11:36:50;;;;;;;11.55;5.47;;;18.60;80.50;;;;;;5016879;28;20034;-62
2022/10/11 11:39:20;;;;;;;12.93;6.10;;;18.60;80.00;;;;;;5018801;28;20393;-61
2022/10/11 11:41:52;;;;;;;11.43;5.93;;;18.60;80.00;;;;;;5018032;28;20158;-61
2022/10/11 11:44:31;;;;;;;7.10;4.75;;;18.60;80.00;;;;;;5017365;28;20042;-61
2022/10/11 11:47:23;;;;;;;12.80;5.00;;;18.60;80.00;;;;;;5017736;28;20140;-61
2022/10/11 11:49:58;;;;;;;11.32;5.78;;;18.60;79.30;;;;;;5017206;28;20111;-61
2022/10/11 11:52:45;;;;;;;8.15;5.10;;;18.60;79.80;;;;;;5016331;28;20497;-59
2022/10/11 11:55:48;;;;;;;10.55;5.57;;;18.60;79.20;;;;;;5018045;28;20037;-60
2022/10/11 11:58:31;;;;;;;9.98;4.95;;;18.60;78.50;;;;;;5018031;28;20034;-61
2022/10/11 12:01:31;;;;;;;6.88;4.60;;;18.60;79.80;;;;;;5016049;28;20041;-60
2022/10/11 12:04:03;;;;;;;11.27;4.93;;;18.70;79.60;;;;;;4998383;28;20540;-60
2022/10/11 12:06:34;;;;;;;9.98;5.30;;;18.70;79.70;;;;;;5016855;28;20408;-60
2022/10/11 12:09:15;;;;;;;9.82;4.50;;;18.80;79.60;;;;;;5017062;28;20472;-61
2022/10/11 12:11:57;;;;;;;8.30;4.53;;;18.80;80.60;;;;;;5016102;28;20033;-60
2022/10/11 12:14:34;;;;;;;9.02;3.75;;;18.80;79.20;;;;;;5017209;28;20029;-60
2022/10/11 12:17:13;;;;;;;6.30;3.90;;;18.80;79.30;;;;;;5016685;28;20036;-62
2022/10/11 12:19:59;;;;;;;6.38;3.58;;;18.90;78.60;;;;;;5016558;28;20036;-61
2022/10/11 12:22:25;;;;;;;8.07;3.65;;;18.90;78.20;;;;;;5015602;28;20037;-61
2022/10/11 12:24:51;;;;;;;9.55;3.60;;;18.90;78.60;;;;;;5016503;28;20521;-61
2022/10/11 12:27:47;;;;;;;6.30;3.17;;;19.00;78.20;;;;;;5016462;28;20041;-61
2022/10/11 12:30:43;;;;;;;6.82;3.28;;;19.00;77.00;;;;;;5016327;28;20369;-62
2022/10/11 12:33:14;;;;;;;6.82;2.90;;;19.10;76.90;;;;;;5017114;28;20091;-60
2022/10/11 12:35:55;;;;;;;7.82;3.05;;;19.10;77.30;;;;;;5016429;28;20041;-61
2022/10/11 12:38:29;;;;;;;8.27;4.05;;;19.10;76.90;;;;;;5017045;28;20042;-61
2022/10/11 12:40:59;;;;;;;14.05;4.55;;;19.10;77.10;;;;;;5017307;28;20037;-62
2022/10/11 12:43:35;;;;;;;9.65;4.38;;;19.10;77.70;;;;;;5016306;28;20034;-59
2022/10/11 12:46:28;;;;;;;7.97;4.07;;;19.20;77.50;;;;;;5016201;28;20039;-61
2022/10/11 12:49:01;;;;;;;8.50;4.10;;;19.20;77.20;;;;;;5015261;28;20026;-62
2022/10/11 12:51:33;;;;;;;7.35;3.65;;;19.20;76.80;;;;;;5014672;28;20041;-62
2022/10/11 12:54:24;;;;;;;9.35;4.22;;;19.20;76.60;;;;;;5016994;28;20121;-61
2022/10/11 12:56:56;;;;;;;9.10;3.70;;;19.20;73.70;;;;;;5015698;28;20124;-61
2022/10/11 12:59:22;;;;;;;9.43;3.78;;;19.10;75.20;;;;;;5017616;28;20037;-61
2022/10/11 13:01:52;;;;;;;7.68;3.75;;;19.10;75.10;;;;;;5016222;28;20038;-60
2022/10/11 13:04:24;;;;;;;7.13;3.75;;;19.00;75.40;;;;;;5015374;28;20037;-61
2022/10/11 13:06:55;;;;;;;8.40;3.90;;;19.00;75.50;;;;;;5013678;28;20044;-62